VIR155M EGLL-KLAS
Flight info
| Callsign | VIR155M |
|---|---|
| Flight time | N/A |
| Altitude | 34000 |
| Route | ULTIB T420 TNT UL28 RODOL UM65 TENSO L603 BELOX DCT GOMUP/M085F340 DCT 59N020W 60N030W 61N040W 61N050W/M085F360 DCT PIDSO N950B MUSLO/N0490F360 N956A SEMTO DCT KEMSA/N0493F380 DCT GABOV DCT DPR DCT RAP DCT MBW DCT EKR J100 SAKES DCT GGAPP |
| Aircraft | A35K/H-SDE2E3GHIJ3J4J5LM1ORWXY/LB1D1 |
Departure
| Time | N/A |
|---|---|
| Airport | London Heathrow Airport (EGLL) |
Arrival
| Time | 2026-04-30 20:11 |
|---|---|
| Airport | Harry Reid International Airport (KLAS) |
| Time | Latitude | Longitude | Altitude | Speed | Heading |
|---|---|---|---|---|---|
| 2026-04-30 18:52 | 40.41892 | -107.55602 | 38159 ft | 460 kts | 223° |
| 2026-04-30 18:53 | 40.36949 | -107.60818 | 38175 ft | 458 kts | 223° |
| 2026-04-30 18:53 | 40.31980 | -107.66053 | 38156 ft | 458 kts | 223° |
| 2026-04-30 18:54 | 40.27010 | -107.71280 | 38130 ft | 458 kts | 223° |
| 2026-04-30 18:54 | 40.22033 | -107.76506 | 38100 ft | 459 kts | 223° |
| 2026-04-30 18:55 | 40.17078 | -107.81701 | 38085 ft | 460 kts | 223° |
| 2026-04-30 18:55 | 40.09613 | -107.89511 | 38075 ft | 457 kts | 224° |
| 2026-04-30 18:56 | 40.05308 | -107.95475 | 38166 ft | 448 kts | 238° |
| 2026-04-30 18:56 | 40.03504 | -107.98789 | 38163 ft | 447 kts | 239° |
| 2026-04-30 18:57 | 39.98367 | -108.08883 | 38136 ft | 447 kts | 240° |
| 2026-04-30 18:57 | 39.94949 | -108.15662 | 38116 ft | 448 kts | 240° |
| 2026-04-30 18:58 | 39.89783 | -108.25793 | 38072 ft | 447 kts | 239° |
| 2026-04-30 18:59 | 39.84640 | -108.35814 | 38052 ft | 443 kts | 240° |
| 2026-04-30 19:00 | 39.77793 | -108.49111 | 38050 ft | 443 kts | 240° |
| 2026-04-30 19:01 | 39.70936 | -108.62385 | 38032 ft | 444 kts | 240° |
| 2026-04-30 19:02 | 39.65759 | -108.72359 | 38029 ft | 444 kts | 239° |
| 2026-04-30 19:03 | 39.58837 | -108.85659 | 38015 ft | 444 kts | 240° |
| 2026-04-30 19:04 | 39.51964 | -108.98795 | 38022 ft | 438 kts | 240° |
| 2026-04-30 19:05 | 39.45149 | -109.11770 | 38009 ft | 437 kts | 240° |
| 2026-04-30 19:06 | 39.38315 | -109.24749 | 38001 ft | 436 kts | 240° |
| 2026-04-30 19:06 | 39.33172 | -109.34445 | 37991 ft | 435 kts | 240° |
| 2026-04-30 19:07 | 39.28065 | -109.44068 | 37999 ft | 435 kts | 240° |
| 2026-04-30 19:08 | 39.21216 | -109.56936 | 37992 ft | 433 kts | 240° |
| 2026-04-30 19:09 | 39.16129 | -109.66493 | 37981 ft | 433 kts | 240° |
| 2026-04-30 19:09 | 39.12688 | -109.72874 | 37997 ft | 434 kts | 240° |
| 2026-04-30 19:10 | 39.05822 | -109.85673 | 38006 ft | 436 kts | 240° |
| 2026-04-30 19:11 | 39.00659 | -109.95233 | 38013 ft | 436 kts | 240° |
| 2026-04-30 19:12 | 38.97200 | -110.01624 | 38006 ft | 435 kts | 240° |
| 2026-04-30 19:12 | 38.93741 | -110.08010 | 37998 ft | 435 kts | 240° |
| 2026-04-30 19:13 | 38.86828 | -110.20732 | 37981 ft | 437 kts | 240° |
| 2026-04-30 19:14 | 38.83284 | -110.27071 | 37973 ft | 440 kts | 236° |
| 2026-04-30 19:14 | 38.79301 | -110.33063 | 37975 ft | 441 kts | 234° |
| 2026-04-30 19:15 | 38.75303 | -110.38962 | 37985 ft | 441 kts | 234° |
| 2026-04-30 19:15 | 38.69254 | -110.47848 | 37969 ft | 441 kts | 234° |
| 2026-04-30 19:16 | 38.65203 | -110.53785 | 37985 ft | 444 kts | 234° |
| 2026-04-30 19:17 | 38.59128 | -110.62661 | 38048 ft | 443 kts | 234° |
| 2026-04-30 19:17 | 38.53041 | -110.71531 | 38076 ft | 442 kts | 234° |
| 2026-04-30 19:18 | 38.46980 | -110.80339 | 38080 ft | 442 kts | 234° |
| 2026-04-30 19:19 | 38.42911 | -110.86241 | 38065 ft | 444 kts | 234° |
| 2026-04-30 19:19 | 38.36787 | -110.95097 | 38023 ft | 444 kts | 234° |
| 2026-04-30 19:20 | 38.32694 | -111.01004 | 38022 ft | 444 kts | 234° |
| 2026-04-30 19:21 | 38.26583 | -111.09802 | 37997 ft | 444 kts | 233° |
| 2026-04-30 19:22 | 38.18392 | -111.21562 | 37988 ft | 445 kts | 233° |
| 2026-04-30 19:23 | 38.06066 | -111.39170 | 37988 ft | 446 kts | 233° |
| 2026-04-30 19:24 | 37.99874 | -111.47981 | 37982 ft | 446 kts | 233° |
| 2026-04-30 19:25 | 37.89593 | -111.62544 | 37981 ft | 445 kts | 233° |
| 2026-04-30 19:26 | 37.81340 | -111.74205 | 37995 ft | 445 kts | 232° |
| 2026-04-30 19:27 | 37.75169 | -111.82891 | 38036 ft | 446 kts | 232° |
| 2026-04-30 19:28 | 37.68924 | -111.91654 | 38082 ft | 448 kts | 232° |
| 2026-04-30 19:29 | 37.60575 | -112.03338 | 38118 ft | 448 kts | 232° |
| 2026-04-30 19:30 | 37.52458 | -112.15149 | 38090 ft | 445 kts | 239° |
| 2026-04-30 19:31 | 37.45680 | -112.28220 | 38023 ft | 446 kts | 240° |
| 2026-04-30 19:31 | 37.40606 | -112.38001 | 37971 ft | 447 kts | 240° |
| 2026-04-30 19:32 | 37.37202 | -112.44542 | 37960 ft | 448 kts | 240° |
| 2026-04-30 19:32 | 37.33775 | -112.51122 | 37965 ft | 451 kts | 240° |
| 2026-04-30 19:33 | 37.30329 | -112.57721 | 37964 ft | 453 kts | 240° |
| 2026-04-30 19:33 | 37.26892 | -112.64287 | 37960 ft | 453 kts | 240° |
| 2026-04-30 19:34 | 37.23434 | -112.70884 | 37951 ft | 453 kts | 240° |
| 2026-04-30 19:35 | 37.18232 | -112.80784 | 37994 ft | 454 kts | 239° |
| 2026-04-30 19:35 | 37.14754 | -112.87374 | 37658 ft | 449 kts | 239° |
| 2026-04-30 19:35 | 37.13063 | -112.90572 | 37205 ft | 444 kts | 239° |
| 2026-04-30 19:36 | 37.11361 | -112.93794 | 36542 ft | 443 kts | 239° |
| 2026-04-30 19:36 | 37.09661 | -112.97012 | 35898 ft | 442 kts | 239° |
| 2026-04-30 19:36 | 37.06277 | -113.03403 | 34843 ft | 437 kts | 239° |
| 2026-04-30 19:37 | 37.04602 | -113.06559 | 34372 ft | 433 kts | 239° |
| 2026-04-30 19:37 | 37.02941 | -113.09687 | 33854 ft | 430 kts | 240° |
| 2026-04-30 19:37 | 37.01293 | -113.12786 | 33332 ft | 426 kts | 239° |
| 2026-04-30 19:37 | 36.99684 | -113.15809 | 32874 ft | 421 kts | 239° |
| 2026-04-30 19:38 | 36.98069 | -113.18843 | 32388 ft | 417 kts | 239° |
| 2026-04-30 19:38 | 36.96470 | -113.21844 | 31915 ft | 413 kts | 240° |
| 2026-04-30 19:38 | 36.94883 | -113.24821 | 31451 ft | 409 kts | 240° |
| 2026-04-30 19:38 | 36.93309 | -113.27771 | 30991 ft | 408 kts | 240° |
| 2026-04-30 19:39 | 36.91737 | -113.30714 | 30513 ft | 406 kts | 240° |
| 2026-04-30 19:39 | 36.90174 | -113.33637 | 30058 ft | 404 kts | 240° |
| 2026-04-30 19:39 | 36.88617 | -113.36547 | 29541 ft | 401 kts | 240° |
| 2026-04-30 19:39 | 36.87090 | -113.39398 | 29079 ft | 399 kts | 240° |
| 2026-04-30 19:40 | 36.85550 | -113.42271 | 28614 ft | 397 kts | 240° |
| 2026-04-30 19:40 | 36.84013 | -113.45138 | 28215 ft | 397 kts | 240° |
| 2026-04-30 19:40 | 36.82478 | -113.47997 | 27750 ft | 396 kts | 240° |
| 2026-04-30 19:40 | 36.80946 | -113.50847 | 27313 ft | 395 kts | 240° |
| 2026-04-30 19:41 | 36.79426 | -113.53692 | 26875 ft | 394 kts | 240° |
| 2026-04-30 19:41 | 36.77905 | -113.56526 | 26418 ft | 392 kts | 241° |
| 2026-04-30 19:41 | 36.76388 | -113.59351 | 25973 ft | 391 kts | 241° |
| 2026-04-30 19:41 | 36.74898 | -113.62124 | 25527 ft | 389 kts | 241° |
| 2026-04-30 19:42 | 36.73392 | -113.64926 | 25070 ft | 388 kts | 241° |
| 2026-04-30 19:42 | 36.71890 | -113.67715 | 24610 ft | 387 kts | 241° |
| 2026-04-30 19:42 | 36.70393 | -113.70496 | 24137 ft | 386 kts | 242° |
| 2026-04-30 19:42 | 36.68901 | -113.73266 | 23706 ft | 385 kts | 242° |
| 2026-04-30 19:43 | 36.67412 | -113.76029 | 23179 ft | 384 kts | 242° |
| 2026-04-30 19:43 | 36.65927 | -113.78782 | 22708 ft | 382 kts | 241° |
| 2026-04-30 19:43 | 36.64450 | -113.81522 | 22251 ft | 380 kts | 240° |
| 2026-04-30 19:44 | 36.61544 | -113.86893 | 21363 ft | 373 kts | 240° |
| 2026-04-30 19:44 | 36.60103 | -113.89555 | 20890 ft | 369 kts | 240° |
| 2026-04-30 19:44 | 36.58674 | -113.92193 | 20457 ft | 366 kts | 239° |
| 2026-04-30 19:44 | 36.57183 | -113.94748 | 20075 ft | 368 kts | 235° |
| 2026-04-30 19:45 | 36.55582 | -113.97279 | 19679 ft | 373 kts | 234° |
| 2026-04-30 19:45 | 36.53979 | -113.99810 | 19136 ft | 372 kts | 234° |
| 2026-04-30 19:45 | 36.52389 | -114.02338 | 18674 ft | 370 kts | 234° |
| 2026-04-30 19:45 | 36.50837 | -114.04818 | 18220 ft | 367 kts | 234° |
| 2026-04-30 19:46 | 36.49279 | -114.07314 | 17726 ft | 364 kts | 235° |
| 2026-04-30 19:46 | 36.47736 | -114.09786 | 17284 ft | 360 kts | 235° |
| 2026-04-30 19:46 | 36.46229 | -114.12203 | 17108 ft | 347 kts | 234° |
| 2026-04-30 19:46 | 36.44781 | -114.14523 | 16969 ft | 333 kts | 235° |
| 2026-04-30 19:47 | 36.43390 | -114.16753 | 16823 ft | 320 kts | 235° |
| 2026-04-30 19:47 | 36.42495 | -114.18190 | 16667 ft | 316 kts | 235° |
| 2026-04-30 19:47 | 36.40701 | -114.21067 | 16177 ft | 314 kts | 235° |
| 2026-04-30 19:47 | 36.39364 | -114.23217 | 15923 ft | 317 kts | 234° |
| 2026-04-30 19:48 | 36.37998 | -114.25394 | 15888 ft | 321 kts | 235° |
| 2026-04-30 19:48 | 36.36629 | -114.27537 | 15877 ft | 322 kts | 234° |
| 2026-04-30 19:48 | 36.35239 | -114.29708 | 15877 ft | 321 kts | 234° |
| 2026-04-30 19:48 | 36.33847 | -114.31880 | 15870 ft | 321 kts | 234° |
| 2026-04-30 19:49 | 36.32460 | -114.34053 | 15878 ft | 321 kts | 234° |
| 2026-04-30 19:49 | 36.29687 | -114.38393 | 15878 ft | 321 kts | 234° |
| 2026-04-30 19:49 | 36.28299 | -114.40561 | 15878 ft | 321 kts | 234° |
| 2026-04-30 19:50 | 36.26913 | -114.42728 | 15876 ft | 321 kts | 234° |
| 2026-04-30 19:50 | 36.25496 | -114.44822 | 15865 ft | 323 kts | 229° |
| 2026-04-30 19:50 | 36.23832 | -114.46698 | 15872 ft | 325 kts | 223° |
| 2026-04-30 19:50 | 36.22095 | -114.48493 | 15871 ft | 325 kts | 221° |
| 2026-04-30 19:51 | 36.20348 | -114.50280 | 15874 ft | 325 kts | 223° |
| 2026-04-30 19:51 | 36.18604 | -114.52067 | 15868 ft | 325 kts | 223° |
| 2026-04-30 19:51 | 36.16868 | -114.53855 | 15874 ft | 324 kts | 223° |
| 2026-04-30 19:51 | 36.15134 | -114.55644 | 15885 ft | 325 kts | 222° |
| 2026-04-30 19:52 | 36.13399 | -114.57429 | 15892 ft | 324 kts | 223° |
| 2026-04-30 19:52 | 36.11685 | -114.59185 | 15888 ft | 325 kts | 223° |
| 2026-04-30 19:52 | 36.09945 | -114.60972 | 15901 ft | 325 kts | 222° |
| 2026-04-30 19:52 | 36.08211 | -114.62759 | 15794 ft | 324 kts | 223° |
| 2026-04-30 19:53 | 36.06474 | -114.64542 | 15618 ft | 325 kts | 222° |
| 2026-04-30 19:53 | 36.04739 | -114.66320 | 15457 ft | 324 kts | 222° |
| 2026-04-30 19:53 | 36.03004 | -114.68099 | 15285 ft | 324 kts | 223° |
| 2026-04-30 19:53 | 36.01271 | -114.69877 | 15131 ft | 323 kts | 222° |
| 2026-04-30 19:54 | 35.99543 | -114.71648 | 14983 ft | 322 kts | 222° |
| 2026-04-30 19:54 | 35.97853 | -114.73385 | 14940 ft | 319 kts | 222° |
| 2026-04-30 19:54 | 35.96146 | -114.75119 | 14704 ft | 317 kts | 223° |
| 2026-04-30 19:54 | 35.94445 | -114.76847 | 14536 ft | 317 kts | 221° |
| 2026-04-30 19:55 | 35.92742 | -114.78575 | 14368 ft | 316 kts | 223° |
| 2026-04-30 19:55 | 35.91042 | -114.80300 | 14219 ft | 316 kts | 221° |
| 2026-04-30 19:55 | 35.89347 | -114.82018 | 14053 ft | 315 kts | 221° |
| 2026-04-30 19:55 | 35.87655 | -114.83733 | 13910 ft | 315 kts | 221° |
| 2026-04-30 19:56 | 35.85962 | -114.85450 | 13743 ft | 314 kts | 222° |
| 2026-04-30 19:56 | 35.84276 | -114.87159 | 13579 ft | 314 kts | 222° |
| 2026-04-30 19:56 | 35.82591 | -114.88867 | 13420 ft | 313 kts | 221° |
| 2026-04-30 19:56 | 35.80932 | -114.90543 | 13271 ft | 313 kts | 222° |
| 2026-04-30 19:57 | 35.79247 | -114.92248 | 13129 ft | 313 kts | 221° |
| 2026-04-30 19:57 | 35.77574 | -114.93944 | 12959 ft | 312 kts | 221° |
| 2026-04-30 19:57 | 35.75900 | -114.95644 | 12867 ft | 312 kts | 221° |
| 2026-04-30 19:57 | 35.74225 | -114.97342 | 12745 ft | 311 kts | 221° |
| 2026-04-30 19:58 | 35.72554 | -114.99027 | 12619 ft | 311 kts | 222° |
| 2026-04-30 19:58 | 35.70880 | -115.00718 | 12522 ft | 311 kts | 220° |
| 2026-04-30 19:58 | 35.69215 | -115.02396 | 12424 ft | 309 kts | 222° |
| 2026-04-30 19:58 | 35.67579 | -115.04046 | 12309 ft | 307 kts | 222° |
| 2026-04-30 19:59 | 35.65930 | -115.05709 | 12197 ft | 306 kts | 221° |
| 2026-04-30 19:59 | 35.64280 | -115.07372 | 12082 ft | 307 kts | 221° |
| 2026-04-30 19:59 | 35.60984 | -115.10700 | 11811 ft | 306 kts | 222° |
| 2026-04-30 20:00 | 35.59335 | -115.12361 | 11605 ft | 306 kts | 221° |
| 2026-04-30 20:00 | 35.57690 | -115.14014 | 11436 ft | 305 kts | 221° |
| 2026-04-30 20:00 | 35.56043 | -115.15669 | 11271 ft | 306 kts | 222° |
| 2026-04-30 20:00 | 35.54539 | -115.17427 | 11077 ft | 302 kts | 235° |
| 2026-04-30 20:01 | 35.53467 | -115.22155 | 10768 ft | 285 kts | 273° |
| 2026-04-30 20:01 | 35.53481 | -115.24540 | 10601 ft | 273 kts | 274° |
| 2026-04-30 20:01 | 35.53501 | -115.26820 | 10452 ft | 262 kts | 275° |
| 2026-04-30 20:02 | 35.53645 | -115.31572 | 10271 ft | 288 kts | 284° |
| 2026-04-30 20:02 | 35.54521 | -115.33719 | 10054 ft | 280 kts | 316° |
| 2026-04-30 20:03 | 35.58008 | -115.35352 | 9769 ft | 271 kts | 352° |
| 2026-04-30 20:03 | 35.59878 | -115.35706 | 9440 ft | 274 kts | 352° |
| 2026-04-30 20:03 | 35.61768 | -115.36079 | 9229 ft | 274 kts | 351° |
| 2026-04-30 20:03 | 35.63654 | -115.36457 | 9044 ft | 276 kts | 354° |
| 2026-04-30 20:04 | 35.65556 | -115.36362 | 8990 ft | 273 kts | 9° |
| 2026-04-30 20:04 | 35.67427 | -115.35895 | 8986 ft | 275 kts | 12° |
| 2026-04-30 20:04 | 35.69283 | -115.35386 | 8992 ft | 272 kts | 12° |
| 2026-04-30 20:05 | 35.72969 | -115.34392 | 8987 ft | 273 kts | 12° |
| 2026-04-30 20:05 | 35.74832 | -115.33904 | 8990 ft | 274 kts | 11° |
| 2026-04-30 20:05 | 35.78442 | -115.32554 | 8287 ft | 272 kts | 20° |
| 2026-04-30 20:06 | 35.80257 | -115.32175 | 7628 ft | 264 kts | 359° |
| 2026-04-30 20:06 | 35.82082 | -115.31916 | 6665 ft | 267 kts | 20° |
| 2026-04-30 20:06 | 35.83729 | -115.30888 | 5896 ft | 264 kts | 30° |
| 2026-04-30 20:06 | 35.85299 | -115.29780 | 5438 ft | 257 kts | 28° |
| 2026-04-30 20:07 | 35.86876 | -115.28816 | 5270 ft | 257 kts | 24° |
| 2026-04-30 20:07 | 35.88510 | -115.27905 | 5267 ft | 258 kts | 25° |
| 2026-04-30 20:07 | 35.91746 | -115.26077 | 5250 ft | 255 kts | 26° |
| 2026-04-30 20:08 | 35.93361 | -115.25150 | 5265 ft | 257 kts | 25° |
| 2026-04-30 20:08 | 35.94979 | -115.24222 | 5264 ft | 257 kts | 25° |
| 2026-04-30 20:08 | 35.96592 | -115.23300 | 5019 ft | 253 kts | 25° |
| 2026-04-30 20:08 | 35.98159 | -115.22405 | 4601 ft | 242 kts | 25° |
| 2026-04-30 20:09 | 35.99612 | -115.21573 | 4210 ft | 219 kts | 25° |
| 2026-04-30 20:09 | 36.00903 | -115.20834 | 3911 ft | 196 kts | 25° |
| 2026-04-30 20:09 | 36.03143 | -115.19550 | 3359 ft | 163 kts | 25° |
| 2026-04-30 20:10 | 36.05032 | -115.18505 | 2860 ft | 137 kts | 23° |
| 2026-04-30 20:10 | 36.05883 | -115.17988 | 2652 ft | 138 kts | 24° |
| 2026-04-30 20:10 | 36.06760 | -115.17484 | 2428 ft | 139 kts | 24° |
| 2026-04-30 20:11 | 36.08546 | -115.16458 | 2133 ft | 124 kts | 25° |
| 2026-04-30 20:11 | 36.09116 | -115.16133 | 2128 ft | 59 kts | 25° |
| 2026-04-30 20:11 | 36.09366 | -115.15989 | 2129 ft | 35 kts | 25° |
| 2026-04-30 20:12 | 36.09555 | -115.15706 | 2130 ft | 9 kts | 94° |
| 2026-04-30 20:12 | 36.09554 | -115.15686 | 2130 ft | 0 kts | 92° |
| 2026-04-30 20:12 | 36.09554 | -115.15672 | 2131 ft | 4 kts | 92° |
| 2026-04-30 20:13 | 36.09548 | -115.15632 | 2132 ft | 6 kts | 106° |
| 2026-04-30 20:13 | 36.09524 | -115.15562 | 2132 ft | 11 kts | 112° |
| 2026-04-30 20:13 | 36.09486 | -115.15455 | 2133 ft | 14 kts | 117° |
| 2026-04-30 20:13 | 36.09404 | -115.15399 | 2133 ft | 16 kts | 192° |
| 2026-04-30 20:14 | 36.09284 | -115.15461 | 2130 ft | 21 kts | 204° |
| 2026-04-30 20:14 | 36.09160 | -115.15533 | 2130 ft | 19 kts | 206° |
| 2026-04-30 20:14 | 36.09025 | -115.15614 | 2131 ft | 24 kts | 206° |
| 2026-04-30 20:14 | 36.08913 | -115.15674 | 2127 ft | 14 kts | 204° |
| 2026-04-30 20:15 | 36.08822 | -115.15723 | 2129 ft | 15 kts | 204° |
| 2026-04-30 20:15 | 36.08718 | -115.15780 | 2129 ft | 17 kts | 203° |
| 2026-04-30 20:15 | 36.08609 | -115.15758 | 2129 ft | 18 kts | 153° |
| 2026-04-30 20:15 | 36.08489 | -115.15684 | 2129 ft | 20 kts | 155° |
| 2026-04-30 20:16 | 36.08360 | -115.15611 | 2129 ft | 22 kts | 155° |
| 2026-04-30 20:16 | 36.08218 | -115.15529 | 2130 ft | 23 kts | 155° |
| 2026-04-30 20:16 | 36.08070 | -115.15444 | 2132 ft | 24 kts | 155° |
| 2026-04-30 20:16 | 36.07927 | -115.15362 | 2133 ft | 17 kts | 155° |
| 2026-04-30 20:17 | 36.07877 | -115.15274 | 2134 ft | 14 kts | 92° |
| 2026-04-30 20:17 | 36.07877 | -115.15137 | 2132 ft | 18 kts | 90° |
| 2026-04-30 20:17 | 36.07869 | -115.14972 | 2131 ft | 20 kts | 94° |
| 2026-04-30 20:17 | 36.07858 | -115.14785 | 2128 ft | 24 kts | 95° |
| 2026-04-30 20:18 | 36.07843 | -115.14570 | 2129 ft | 24 kts | 94° |
| 2026-04-30 20:18 | 36.07832 | -115.14406 | 2126 ft | 19 kts | 95° |
| 2026-04-30 20:18 | 36.07825 | -115.14238 | 2127 ft | 19 kts | 88° |
| 2026-04-30 20:18 | 36.07843 | -115.14168 | 2128 ft | 8 kts | 39° |
| 2026-04-30 20:19 | 36.07908 | -115.14158 | 2123 ft | 11 kts | 360° |
| 2026-04-30 20:19 | 36.07966 | -115.14159 | 2123 ft | 14 kts | 360° |
| 2026-04-30 20:19 | 36.08135 | -115.14159 | 2112 ft | 23 kts | 360° |
| 2026-04-30 20:19 | 36.08302 | -115.14162 | 2104 ft | 22 kts | 359° |
| 2026-04-30 20:20 | 36.08425 | -115.14077 | 2097 ft | 18 kts | 43° |
| 2026-04-30 20:20 | 36.08467 | -115.13941 | 2093 ft | 19 kts | 90° |
| 2026-04-30 20:20 | 36.08467 | -115.13767 | 2092 ft | 21 kts | 90° |
| 2026-04-30 20:20 | 36.08465 | -115.13576 | 2091 ft | 23 kts | 92° |
| 2026-04-30 20:21 | 36.08463 | -115.13487 | 2091 ft | 8 kts | 91° |
| 2026-04-30 20:21 | 36.08469 | -115.13463 | 2090 ft | 5 kts | 57° |
| 2026-04-30 20:21 | 36.08498 | -115.13448 | 2089 ft | 6 kts | 7° |
| 2026-04-30 20:21 | 36.08521 | -115.13449 | 2089 ft | 1 kts | 359° |
| 2026-04-30 20:22 | 36.08530 | -115.13449 | 2089 ft | 1 kts | 360° |
| 2026-04-30 20:22 | 36.08531 | -115.13449 | 2089 ft | 0 kts | 360° |
| 2026-04-30 20:23 | 36.08540 | -115.13449 | 2089 ft | 0 kts | 360° |